sensor_id;sensor_type;location;lat;lon;timestamp;P1;durP1;ratioP1;P2;durP2;ratioP2
15936;SDS011;9163;48.818;8.976;2023-04-01T00:01:12;2.43;;;0.57;;
15936;SDS011;9163;48.818;8.976;2023-04-01T00:03:41;1.80;;;0.50;;
15936;SDS011;9163;48.818;8.976;2023-04-01T00:06:09;2.10;;;0.50;;
15936;SDS011;9163;48.818;8.976;2023-04-01T00:08:39;2.37;;;0.57;;
15936;SDS011;9163;48.818;8.976;2023-04-01T00:11:06;1.30;;;0.50;;
15936;SDS011;9163;48.818;8.976;2023-04-01T00:13:35;2.00;;;0.60;;
15936;SDS011;9163;48.818;8.976;2023-04-01T00:16:02;1.87;;;0.50;;
15936;SDS011;9163;48.818;8.976;2023-04-01T00:18:30;2.43;;;0.80;;
15936;SDS011;9163;48.818;8.976;2023-04-01T00:20:57;3.70;;;0.70;;
15936;SDS011;9163;48.818;8.976;2023-04-01T00:23:24;1.83;;;0.60;;
15936;SDS011;9163;48.818;8.976;2023-04-01T00:25:52;3.17;;;0.50;;
15936;SDS011;9163;48.818;8.976;2023-04-01T00:28:19;1.83;;;0.50;;
15936;SDS011;9163;48.818;8.976;2023-04-01T00:30:48;1.57;;;0.60;;
15936;SDS011;9163;48.818;8.976;2023-04-01T00:33:15;1.37;;;0.50;;
15936;SDS011;9163;48.818;8.976;2023-04-01T00:35:43;1.70;;;0.57;;
15936;SDS011;9163;48.818;8.976;2023-04-01T00:38:11;2.07;;;0.70;;
15936;SDS011;9163;48.818;8.976;2023-04-01T00:40:39;3.50;;;0.60;;
15936;SDS011;9163;48.818;8.976;2023-04-01T00:43:11;2.73;;;0.60;;
15936;SDS011;9163;48.818;8.976;2023-04-01T00:45:41;3.03;;;0.70;;
15936;SDS011;9163;48.818;8.976;2023-04-01T00:48:12;2.53;;;0.60;;
15936;SDS011;9163;48.818;8.976;2023-04-01T00:50:44;2.87;;;0.70;;
15936;SDS011;9163;48.818;8.976;2023-04-01T00:53:14;2.37;;;0.50;;
15936;SDS011;9163;48.818;8.976;2023-04-01T00:55:43;1.97;;;0.50;;
15936;SDS011;9163;48.818;8.976;2023-04-01T00:58:17;1.73;;;0.50;;
15936;SDS011;9163;48.818;8.976;2023-04-01T01:00:47;4.70;;;0.70;;
15936;SDS011;9163;48.818;8.976;2023-04-01T01:03:18;3.37;;;0.60;;
15936;SDS011;9163;48.818;8.976;2023-04-01T01:05:51;2.57;;;0.70;;
15936;SDS011;9163;48.818;8.976;2023-04-01T01:08:30;3.20;;;0.70;;
15936;SDS011;9163;48.818;8.976;2023-04-01T01:11:06;4.77;;;0.83;;
15936;SDS011;9163;48.818;8.976;2023-04-01T01:13:39;2.83;;;0.77;;
15936;SDS011;9163;48.818;8.976;2023-04-01T01:16:12;2.90;;;0.70;;
15936;SDS011;9163;48.818;8.976;2023-04-01T01:18:47;3.23;;;0.53;;
15936;SDS011;9163;48.818;8.976;2023-04-01T01:21:28;3.40;;;0.70;;
15936;SDS011;9163;48.818;8.976;2023-04-01T01:24:13;3.20;;;0.80;;
15936;SDS011;9163;48.818;8.976;2023-04-01T01:27:06;3.10;;;0.57;;
15936;SDS011;9163;48.818;8.976;2023-04-01T01:29:58;2.97;;;0.70;;
15936;SDS011;9163;48.818;8.976;2023-04-01T01:35:27;3.37;;;0.60;;
15936;SDS011;9163;48.818;8.976;2023-04-01T01:38:00;2.77;;;0.73;;
15936;SDS011;9163;48.818;8.976;2023-04-01T01:40:31;2.83;;;0.50;;
15936;SDS011;9163;48.818;8.976;2023-04-01T01:43:02;2.23;;;0.57;;
15936;SDS011;9163;48.818;8.976;2023-04-01T01:45:33;2.63;;;0.53;;
15936;SDS011;9163;48.818;8.976;2023-04-01T01:48:02;3.13;;;0.50;;
15936;SDS011;9163;48.818;8.976;2023-04-01T01:50:32;3.03;;;0.43;;
15936;SDS011;9163;48.818;8.976;2023-04-01T01:53:02;1.53;;;0.40;;
15936;SDS011;9163;48.818;8.976;2023-04-01T01:55:30;2.33;;;0.60;;
15936;SDS011;9163;48.818;8.976;2023-04-01T01:58:00;3.03;;;0.70;;
15936;SDS011;9163;48.818;8.976;2023-04-01T02:00:32;1.80;;;0.70;;
15936;SDS011;9163;48.818;8.976;2023-04-01T02:03:00;3.17;;;0.60;;
15936;SDS011;9163;48.818;8.976;2023-04-01T02:05:28;1.23;;;0.60;;
15936;SDS011;9163;48.818;8.976;2023-04-01T02:08:01;2.77;;;0.70;;
15936;SDS011;9163;48.818;8.976;2023-04-01T02:10:33;2.43;;;0.50;;
15936;SDS011;9163;48.818;8.976;2023-04-01T02:13:05;2.07;;;0.60;;
15936;SDS011;9163;48.818;8.976;2023-04-01T02:15:41;2.73;;;0.60;;
15936;SDS011;9163;48.818;8.976;2023-04-01T02:18:12;1.27;;;0.43;;
15936;SDS011;9163;48.818;8.976;2023-04-01T02:20:41;1.27;;;0.43;;
15936;SDS011;9163;48.818;8.976;2023-04-01T02:23:10;1.53;;;0.53;;
15936;SDS011;9163;48.818;8.976;2023-04-01T02:25:38;2.60;;;0.50;;
15936;SDS011;9163;48.818;8.976;2023-04-01T02:28:07;1.03;;;0.30;;
15936;SDS011;9163;48.818;8.976;2023-04-01T02:30:37;1.57;;;0.50;;
15936;SDS011;9163;48.818;8.976;2023-04-01T02:33:07;1.53;;;0.60;;
15936;SDS011;9163;48.818;8.976;2023-04-01T02:35:35;2.33;;;0.60;;
15936;SDS011;9163;48.818;8.976;2023-04-01T02:38:03;1.33;;;0.50;;
15936;SDS011;9163;48.818;8.976;2023-04-01T02:40:41;1.00;;;0.30;;
15936;SDS011;9163;48.818;8.976;2023-04-01T02:43:14;3.17;;;0.50;;
15936;SDS011;9163;48.818;8.976;2023-04-01T02:45:41;1.87;;;0.30;;
15936;SDS011;9163;48.818;8.976;2023-04-01T02:48:09;1.53;;;0.40;;
15936;SDS011;9163;48.818;8.976;2023-04-01T02:50:36;2.73;;;0.40;;
15936;SDS011;9163;48.818;8.976;2023-04-01T02:53:03;1.33;;;0.50;;
15936;SDS011;9163;48.818;8.976;2023-04-01T02:55:31;1.67;;;0.40;;
15936;SDS011;9163;48.818;8.976;2023-04-01T02:58:00;1.33;;;0.33;;
15936;SDS011;9163;48.818;8.976;2023-04-01T03:00:27;1.17;;;0.27;;
15936;SDS011;9163;48.818;8.976;2023-04-01T03:02:55;1.43;;;0.50;;
15936;SDS011;9163;48.818;8.976;2023-04-01T03:05:22;3.87;;;0.80;;
15936;SDS011;9163;48.818;8.976;2023-04-01T03:07:49;1.73;;;0.30;;
15936;SDS011;9163;48.818;8.976;2023-04-01T03:10:16;1.57;;;0.57;;
15936;SDS011;9163;48.818;8.976;2023-04-01T03:12:44;2.83;;;0.47;;
15936;SDS011;9163;48.818;8.976;2023-04-01T03:15:13;3.03;;;0.50;;
15936;SDS011;9163;48.818;8.976;2023-04-01T03:17:41;2.10;;;0.50;;
15936;SDS011;9163;48.818;8.976;2023-04-01T03:20:09;2.40;;;0.30;;
15936;SDS011;9163;48.818;8.976;2023-04-01T03:22:37;4.03;;;0.50;;
15936;SDS011;9163;48.818;8.976;2023-04-01T03:25:05;3.20;;;0.50;;
15936;SDS011;9163;48.818;8.976;2023-04-01T03:27:34;2.07;;;0.40;;
15936;SDS011;9163;48.818;8.976;2023-04-01T03:30:01;1.80;;;0.60;;
15936;SDS011;9163;48.818;8.976;2023-04-01T03:32:30;2.23;;;0.40;;
15936;SDS011;9163;48.818;8.976;2023-04-01T03:34:57;0.80;;;0.30;;
15936;SDS011;9163;48.818;8.976;2023-04-01T03:37:25;1.87;;;0.40;;
15936;SDS011;9163;48.818;8.976;2023-04-01T03:39:52;1.73;;;0.50;;
15936;SDS011;9163;48.818;8.976;2023-04-01T03:42:19;4.90;;;0.40;;
15936;SDS011;9163;48.818;8.976;2023-04-01T03:44:46;2.30;;;0.40;;
15936;SDS011;9163;48.818;8.976;2023-04-01T03:47:13;0.50;;;0.20;;
15936;SDS011;9163;48.818;8.976;2023-04-01T03:49:42;1.90;;;0.30;;
15936;SDS011;9163;48.818;8.976;2023-04-01T03:52:10;2.03;;;0.60;;
15936;SDS011;9163;48.818;8.976;2023-04-01T03:54:38;1.77;;;0.33;;
15936;SDS011;9163;48.818;8.976;2023-04-01T03:57:05;0.37;;;0.30;;
15936;SDS011;9163;48.818;8.976;2023-04-01T03:59:32;1.50;;;0.30;;
15936;SDS011;9163;48.818;8.976;2023-04-01T04:01:59;1.43;;;0.27;;
15936;SDS011;9163;48.818;8.976;2023-04-01T04:04:27;1.67;;;0.37;;
15936;SDS011;9163;48.818;8.976;2023-04-01T04:06:56;0.50;;;0.20;;
15936;SDS011;9163;48.818;8.976;2023-04-01T04:09:23;1.77;;;0.47;;
15936;SDS011;9163;48.818;8.976;2023-04-01T04:11:50;2.30;;;0.40;;
15936;SDS011;9163;48.818;8.976;2023-04-01T04:14:18;1.03;;;0.30;;
15936;SDS011;9163;48.818;8.976;2023-04-01T04:16:45;1.63;;;0.30;;
15936;SDS011;9163;48.818;8.976;2023-04-01T04:19:12;2.57;;;0.30;;
15936;SDS011;9163;48.818;8.976;2023-04-01T04:21:39;1.33;;;0.27;;
15936;SDS011;9163;48.818;8.976;2023-04-01T04:24:08;2.03;;;0.40;;
15936;SDS011;9163;48.818;8.976;2023-04-01T04:26:36;1.90;;;0.40;;
15936;SDS011;9163;48.818;8.976;2023-04-01T04:29:03;2.00;;;0.60;;
15936;SDS011;9163;48.818;8.976;2023-04-01T04:31:30;1.70;;;0.50;;
15936;SDS011;9163;48.818;8.976;2023-04-01T04:33:58;1.27;;;0.43;;
15936;SDS011;9163;48.818;8.976;2023-04-01T04:36:26;2.97;;;0.60;;
15936;SDS011;9163;48.818;8.976;2023-04-01T04:38:53;3.23;;;0.40;;
15936;SDS011;9163;48.818;8.976;2023-04-01T04:41:22;1.97;;;0.40;;
15936;SDS011;9163;48.818;8.976;2023-04-01T04:43:50;0.47;;;0.23;;
15936;SDS011;9163;48.818;8.976;2023-04-01T04:46:18;2.20;;;0.50;;
15936;SDS011;9163;48.818;8.976;2023-04-01T04:48:46;1.80;;;0.30;;
15936;SDS011;9163;48.818;8.976;2023-04-01T04:51:14;1.13;;;0.50;;
15936;SDS011;9163;48.818;8.976;2023-04-01T04:53:42;2.23;;;0.50;;
15936;SDS011;9163;48.818;8.976;2023-04-01T04:56:09;1.60;;;0.40;;
15936;SDS011;9163;48.818;8.976;2023-04-01T04:58:38;2.00;;;0.40;;
15936;SDS011;9163;48.818;8.976;2023-04-01T05:01:07;3.03;;;0.60;;
15936;SDS011;9163;48.818;8.976;2023-04-01T05:03:35;3.07;;;0.50;;
15936;SDS011;9163;48.818;8.976;2023-04-01T05:06:02;1.83;;;0.50;;
15936;SDS011;9163;48.818;8.976;2023-04-01T05:08:30;1.50;;;0.40;;
15936;SDS011;9163;48.818;8.976;2023-04-01T05:10:58;1.97;;;0.40;;
15936;SDS011;9163;48.818;8.976;2023-04-01T05:13:25;3.87;;;0.60;;
15936;SDS011;9163;48.818;8.976;2023-04-01T05:15:54;1.97;;;0.60;;
15936;SDS011;9163;48.818;8.976;2023-04-01T05:18:21;1.70;;;0.43;;
15936;SDS011;9163;48.818;8.976;2023-04-01T05:20:49;2.97;;;0.67;;
15936;SDS011;9163;48.818;8.976;2023-04-01T05:23:17;0.87;;;0.40;;
15936;SDS011;9163;48.818;8.976;2023-04-01T05:25:46;3.07;;;0.70;;
15936;SDS011;9163;48.818;8.976;2023-04-01T05:28:13;1.40;;;0.57;;
15936;SDS011;9163;48.818;8.976;2023-04-01T05:30:41;3.13;;;0.70;;
15936;SDS011;9163;48.818;8.976;2023-04-01T05:33:10;3.23;;;0.67;;
15936;SDS011;9163;48.818;8.976;2023-04-01T05:35:38;2.83;;;0.60;;
15936;SDS011;9163;48.818;8.976;2023-04-01T05:38:05;2.77;;;0.60;;
15936;SDS011;9163;48.818;8.976;2023-04-01T05:40:33;1.97;;;0.50;;
15936;SDS011;9163;48.818;8.976;2023-04-01T05:43:00;2.90;;;0.53;;
15936;SDS011;9163;48.818;8.976;2023-04-01T05:45:27;1.23;;;0.50;;
15936;SDS011;9163;48.818;8.976;2023-04-01T05:47:55;1.57;;;0.53;;
15936;SDS011;9163;48.818;8.976;2023-04-01T05:50:23;2.37;;;0.50;;
15936;SDS011;9163;48.818;8.976;2023-04-01T05:52:50;2.07;;;0.60;;
15936;SDS011;9163;48.818;8.976;2023-04-01T05:55:18;1.93;;;0.40;;
15936;SDS011;9163;48.818;8.976;2023-04-01T05:57:45;3.50;;;0.60;;
15936;SDS011;9163;48.818;8.976;2023-04-01T06:00:14;0.87;;;0.43;;
15936;SDS011;9163;48.818;8.976;2023-04-01T06:02:42;1.77;;;0.60;;
15936;SDS011;9163;48.818;8.976;2023-04-01T06:05:12;3.80;;;0.70;;
15936;SDS011;9163;48.818;8.976;2023-04-01T06:07:44;1.13;;;0.40;;
15936;SDS011;9163;48.818;8.976;2023-04-01T06:10:13;2.20;;;0.50;;
15936;SDS011;9163;48.818;8.976;2023-04-01T06:12:50;4.17;;;0.60;;
15936;SDS011;9163;48.818;8.976;2023-04-01T06:15:23;1.03;;;0.40;;
15936;SDS011;9163;48.818;8.976;2023-04-01T06:18:00;2.90;;;0.50;;
15936;SDS011;9163;48.818;8.976;2023-04-01T06:20:40;2.17;;;0.50;;
15936;SDS011;9163;48.818;8.976;2023-04-01T06:23:24;2.73;;;0.30;;
15936;SDS011;9163;48.818;8.976;2023-04-01T06:26:07;1.77;;;0.47;;
15936;SDS011;9163;48.818;8.976;2023-04-01T06:34:37;2.47;;;0.40;;
15936;SDS011;9163;48.818;8.976;2023-04-01T06:37:18;0.87;;;0.30;;
15936;SDS011;9163;48.818;8.976;2023-04-01T06:42:58;1.30;;;0.40;;
15936;SDS011;9163;48.818;8.976;2023-04-01T06:45:35;0.90;;;0.30;;
15936;SDS011;9163;48.818;8.976;2023-04-01T06:48:10;1.17;;;0.30;;
15936;SDS011;9163;48.818;8.976;2023-04-01T06:50:48;1.43;;;0.40;;
15936;SDS011;9163;48.818;8.976;2023-04-01T06:53:23;1.67;;;0.40;;
15936;SDS011;9163;48.818;8.976;2023-04-01T06:56:01;4.27;;;0.57;;
15936;SDS011;9163;48.818;8.976;2023-04-01T06:58:34;1.00;;;0.30;;
15936;SDS011;9163;48.818;8.976;2023-04-01T07:01:06;1.20;;;0.30;;
15936;SDS011;9163;48.818;8.976;2023-04-01T07:03:38;1.87;;;0.60;;
15936;SDS011;9163;48.818;8.976;2023-04-01T07:06:10;2.00;;;0.40;;
15936;SDS011;9163;48.818;8.976;2023-04-01T07:08:42;1.37;;;0.40;;
15936;SDS011;9163;48.818;8.976;2023-04-01T07:11:14;1.80;;;0.40;;
15936;SDS011;9163;48.818;8.976;2023-04-01T07:13:49;1.30;;;0.30;;
15936;SDS011;9163;48.818;8.976;2023-04-01T07:16:20;2.27;;;0.50;;
15936;SDS011;9163;48.818;8.976;2023-04-01T07:18:53;1.90;;;0.50;;
15936;SDS011;9163;48.818;8.976;2023-04-01T07:21:26;1.67;;;0.50;;
15936;SDS011;9163;48.818;8.976;2023-04-01T07:23:56;1.10;;;0.57;;
15936;SDS011;9163;48.818;8.976;2023-04-01T07:26:31;1.87;;;0.30;;
15936;SDS011;9163;48.818;8.976;2023-04-01T07:28:58;2.30;;;0.47;;
15936;SDS011;9163;48.818;8.976;2023-04-01T07:31:30;1.20;;;0.60;;
15936;SDS011;9163;48.818;8.976;2023-04-01T07:34:09;1.50;;;0.37;;
15936;SDS011;9163;48.818;8.976;2023-04-01T07:36:44;1.03;;;0.30;;
15936;SDS011;9163;48.818;8.976;2023-04-01T07:39:21;1.87;;;0.50;;
15936;SDS011;9163;48.818;8.976;2023-04-01T07:41:59;2.50;;;0.50;;
15936;SDS011;9163;48.818;8.976;2023-04-01T07:44:34;1.07;;;0.30;;
15936;SDS011;9163;48.818;8.976;2023-04-01T07:47:15;2.30;;;0.50;;
15936;SDS011;9163;48.818;8.976;2023-04-01T07:49:54;0.90;;;0.30;;
15936;SDS011;9163;48.818;8.976;2023-04-01T07:52:30;1.83;;;0.50;;
15936;SDS011;9163;48.818;8.976;2023-04-01T07:55:02;1.17;;;0.30;;
15936;SDS011;9163;48.818;8.976;2023-04-01T07:57:38;0.50;;;0.40;;
15936;SDS011;9163;48.818;8.976;2023-04-01T08:00:15;1.53;;;0.40;;
15936;SDS011;9163;48.818;8.976;2023-04-01T08:05:49;2.17;;;0.50;;
15936;SDS011;9163;48.818;8.976;2023-04-01T08:08:25;2.60;;;0.60;;
15936;SDS011;9163;48.818;8.976;2023-04-01T08:11:01;0.50;;;0.40;;
15936;SDS011;9163;48.818;8.976;2023-04-01T08:13:39;1.37;;;0.37;;
15936;SDS011;9163;48.818;8.976;2023-04-01T08:16:12;1.13;;;0.37;;
15936;SDS011;9163;48.818;8.976;2023-04-01T08:18:50;1.53;;;0.27;;
15936;SDS011;9163;48.818;8.976;2023-04-01T08:21:27;2.00;;;0.33;;
15936;SDS011;9163;48.818;8.976;2023-04-01T08:24:00;1.43;;;0.30;;
15936;SDS011;9163;48.818;8.976;2023-04-01T08:26:37;1.03;;;0.40;;
15936;SDS011;9163;48.818;8.976;2023-04-01T08:29:12;1.77;;;0.40;;
15936;SDS011;9163;48.818;8.976;2023-04-01T08:31:48;0.80;;;0.40;;
15936;SDS011;9163;48.818;8.976;2023-04-01T08:34:19;0.87;;;0.40;;
15936;SDS011;9163;48.818;8.976;2023-04-01T08:36:50;1.43;;;0.50;;
15936;SDS011;9163;48.818;8.976;2023-04-01T08:39:21;3.13;;;0.40;;
15936;SDS011;9163;48.818;8.976;2023-04-01T08:41:59;1.53;;;0.47;;
15936;SDS011;9163;48.818;8.976;2023-04-01T08:50:45;1.33;;;0.30;;
15936;SDS011;9163;48.818;8.976;2023-04-01T08:53:33;1.17;;;0.40;;
15936;SDS011;9163;48.818;8.976;2023-04-01T08:56:12;1.17;;;0.57;;
15936;SDS011;9163;48.818;8.976;2023-04-01T08:58:55;1.57;;;0.50;;
15936;SDS011;9163;48.818;8.976;2023-04-01T09:01:46;0.63;;;0.30;;
15936;SDS011;9163;48.818;8.976;2023-04-01T09:04:55;1.17;;;0.40;;
15936;SDS011;9163;48.818;8.976;2023-04-01T09:07:43;1.00;;;0.30;;
15936;SDS011;9163;48.818;8.976;2023-04-01T09:10:21;0.50;;;0.30;;
15936;SDS011;9163;48.818;8.976;2023-04-01T09:13:15;1.73;;;0.40;;
15936;SDS011;9163;48.818;8.976;2023-04-01T09:16:05;1.30;;;0.30;;
15936;SDS011;9163;48.818;8.976;2023-04-01T09:19:16;0.70;;;0.30;;
15936;SDS011;9163;48.818;8.976;2023-04-01T09:21:54;0.53;;;0.30;;
15936;SDS011;9163;48.818;8.976;2023-04-01T09:24:35;0.50;;;0.30;;
15936;SDS011;9163;48.818;8.976;2023-04-01T09:27:14;0.30;;;0.20;;
15936;SDS011;9163;48.818;8.976;2023-04-01T09:32:58;0.20;;;0.10;;
15936;SDS011;9163;48.818;8.976;2023-04-01T09:35:55;0.40;;;0.20;;
15936;SDS011;9163;48.818;8.976;2023-04-01T09:38:32;0.43;;;0.23;;
15936;SDS011;9163;48.818;8.976;2023-04-01T09:41:11;0.23;;;0.20;;
15936;SDS011;9163;48.818;8.976;2023-04-01T09:43:56;0.10;;;0.10;;
15936;SDS011;9163;48.818;8.976;2023-04-01T09:46:32;0.37;;;0.03;;
15936;SDS011;9163;48.818;8.976;2023-04-01T09:52:18;0.07;;;0.07;;
15936;SDS011;9163;48.818;8.976;2023-04-01T09:55:00;0.20;;;0.20;;
15936;SDS011;9163;48.818;8.976;2023-04-01T09:58:00;0.10;;;0.10;;
15936;SDS011;9163;48.818;8.976;2023-04-01T10:01:03;0.30;;;0.20;;
15936;SDS011;9163;48.818;8.976;2023-04-01T10:03:52;0.10;;;0.10;;
15936;SDS011;9163;48.818;8.976;2023-04-01T10:10:08;0.10;;;0.10;;
15936;SDS011;9163;48.818;8.976;2023-04-01T10:24:53;0.23;;;0.10;;
15936;SDS011;9163;48.818;8.976;2023-04-01T10:27:57;0.10;;;0.10;;
15936;SDS011;9163;48.818;8.976;2023-04-01T10:30:53;0.23;;;0.10;;
15936;SDS011;9163;48.818;8.976;2023-04-01T10:33:55;0.43;;;0.20;;
15936;SDS011;9163;48.818;8.976;2023-04-01T10:36:52;1.00;;;0.30;;
15936;SDS011;9163;48.818;8.976;2023-04-01T10:48:47;0.83;;;0.17;;
15936;SDS011;9163;48.818;8.976;2023-04-01T10:51:38;0.23;;;0.20;;
15936;SDS011;9163;48.818;8.976;2023-04-01T10:54:40;0.10;;;0.10;;
15936;SDS011;9163;48.818;8.976;2023-04-01T10:57:22;0.30;;;0.20;;
15936;SDS011;9163;48.818;8.976;2023-04-01T11:00:15;0.20;;;0.20;;
15936;SDS011;9163;48.818;8.976;2023-04-01T11:06:12;0.10;;;0.10;;
15936;SDS011;9163;48.818;8.976;2023-04-01T11:15:31;0.17;;;0.03;;
15936;SDS011;9163;48.818;8.976;2023-04-01T11:24:20;0.23;;;0.20;;
15936;SDS011;9163;48.818;8.976;2023-04-01T11:27:20;0.27;;;0.20;;
15936;SDS011;9163;48.818;8.976;2023-04-01T11:33:07;0.20;;;0.17;;
15936;SDS011;9163;48.818;8.976;2023-04-01T11:35:48;0.50;;;0.20;;
15936;SDS011;9163;48.818;8.976;2023-04-01T11:38:40;0.10;;;0.10;;
15936;SDS011;9163;48.818;8.976;2023-04-01T11:41:22;0.10;;;0.10;;
15936;SDS011;9163;48.818;8.976;2023-04-01T11:43:55;0.33;;;0.10;;
15936;SDS011;9163;48.818;8.976;2023-04-01T11:46:37;0.30;;;0.07;;
15936;SDS011;9163;48.818;8.976;2023-04-01T11:49:20;0.10;;;0.07;;
15936;SDS011;9163;48.818;8.976;2023-04-01T11:52:03;0.20;;;0.17;;
15936;SDS011;9163;48.818;8.976;2023-04-01T11:54:49;0.30;;;0.10;;
15936;SDS011;9163;48.818;8.976;2023-04-01T11:57:35;0.37;;;0.10;;
15936;SDS011;9163;48.818;8.976;2023-04-01T12:00:32;0.20;;;0.20;;
15936;SDS011;9163;48.818;8.976;2023-04-01T12:03:30;0.10;;;0.10;;
15936;SDS011;9163;48.818;8.976;2023-04-01T12:06:19;0.20;;;0.10;;
15936;SDS011;9163;48.818;8.976;2023-04-01T12:08:50;0.30;;;0.30;;
15936;SDS011;9163;48.818;8.976;2023-04-01T12:11:25;0.30;;;0.30;;
15936;SDS011;9163;48.818;8.976;2023-04-01T12:13:59;0.10;;;0.10;;
15936;SDS011;9163;48.818;8.976;2023-04-01T12:16:39;0.10;;;0.10;;
15936;SDS011;9163;48.818;8.976;2023-04-01T12:19:17;0.20;;;0.10;;
15936;SDS011;9163;48.818;8.976;2023-04-01T12:21:52;0.00;;;0.00;;
15936;SDS011;9163;48.818;8.976;2023-04-01T12:24:45;0.13;;;0.10;;
15936;SDS011;9163;48.818;8.976;2023-04-01T12:27:22;0.30;;;0.10;;
15936;SDS011;9163;48.818;8.976;2023-04-01T12:33:05;0.23;;;0.23;;
15936;SDS011;9163;48.818;8.976;2023-04-01T12:35:47;0.10;;;0.10;;
15936;SDS011;9163;48.818;8.976;2023-04-01T12:38:29;0.20;;;0.10;;
15936;SDS011;9163;48.818;8.976;2023-04-01T12:41:04;0.10;;;0.10;;
15936;SDS011;9163;48.818;8.976;2023-04-01T12:46:57;0.10;;;0.10;;
15936;SDS011;9163;48.818;8.976;2023-04-01T12:49:46;1.23;;;0.40;;
15936;SDS011;9163;48.818;8.976;2023-04-01T12:52:25;0.90;;;0.20;;
15936;SDS011;9163;48.818;8.976;2023-04-01T12:57:59;0.17;;;0.17;;
15936;SDS011;9163;48.818;8.976;2023-04-01T13:00:54;0.30;;;0.30;;
15936;SDS011;9163;48.818;8.976;2023-04-01T13:06:29;0.20;;;0.20;;
15936;SDS011;9163;48.818;8.976;2023-04-01T13:09:10;0.83;;;0.20;;
15936;SDS011;9163;48.818;8.976;2023-04-01T13:11:50;0.20;;;0.20;;
15936;SDS011;9163;48.818;8.976;2023-04-01T13:17:36;1.23;;;0.40;;
15936;SDS011;9163;48.818;8.976;2023-04-01T13:20:12;0.10;;;0.10;;
15936;SDS011;9163;48.818;8.976;2023-04-01T13:22:50;0.20;;;0.10;;
15936;SDS011;9163;48.818;8.976;2023-04-01T13:25:28;0.67;;;0.20;;
15936;SDS011;9163;48.818;8.976;2023-04-01T13:28:05;0.20;;;0.13;;
15936;SDS011;9163;48.818;8.976;2023-04-01T13:30:39;0.10;;;0.10;;
15936;SDS011;9163;48.818;8.976;2023-04-01T13:33:17;0.10;;;0.10;;
15936;SDS011;9163;48.818;8.976;2023-04-01T13:35:54;0.10;;;0.10;;
15936;SDS011;9163;48.818;8.976;2023-04-01T13:38:42;0.87;;;0.10;;
15936;SDS011;9163;48.818;8.976;2023-04-01T13:41:31;0.20;;;0.10;;
15936;SDS011;9163;48.818;8.976;2023-04-01T13:44:09;0.10;;;0.10;;
15936;SDS011;9163;48.818;8.976;2023-04-01T13:46:46;1.10;;;0.30;;
15936;SDS011;9163;48.818;8.976;2023-04-01T13:49:29;0.10;;;0.10;;
15936;SDS011;9163;48.818;8.976;2023-04-01T13:55:14;0.30;;;0.10;;
15936;SDS011;9163;48.818;8.976;2023-04-01T13:58:04;0.97;;;0.20;;
15936;SDS011;9163;48.818;8.976;2023-04-01T14:00:45;0.10;;;0.10;;
15936;SDS011;9163;48.818;8.976;2023-04-01T14:03:32;0.70;;;0.20;;
15936;SDS011;9163;48.818;8.976;2023-04-01T14:06:14;0.27;;;0.10;;
15936;SDS011;9163;48.818;8.976;2023-04-01T14:08:51;0.10;;;0.10;;
15936;SDS011;9163;48.818;8.976;2023-04-01T14:11:36;0.00;;;0.00;;
15936;SDS011;9163;48.818;8.976;2023-04-01T14:14:14;2.57;;;1.53;;
15936;SDS011;9163;48.818;8.976;2023-04-01T14:19:48;0.10;;;0.10;;
15936;SDS011;9163;48.818;8.976;2023-04-01T14:22:28;0.43;;;0.20;;
15936;SDS011;9163;48.818;8.976;2023-04-01T14:28:16;0.20;;;0.20;;
15936;SDS011;9163;48.818;8.976;2023-04-01T14:30:58;0.50;;;0.20;;
15936;SDS011;9163;48.818;8.976;2023-04-01T14:33:46;0.67;;;0.53;;
15936;SDS011;9163;48.818;8.976;2023-04-01T14:36:31;0.30;;;0.30;;
15936;SDS011;9163;48.818;8.976;2023-04-01T14:39:18;0.10;;;0.10;;
15936;SDS011;9163;48.818;8.976;2023-04-01T14:41:58;0.83;;;0.20;;
15936;SDS011;9163;48.818;8.976;2023-04-01T14:44:45;0.10;;;0.10;;
15936;SDS011;9163;48.818;8.976;2023-04-01T14:50:22;0.10;;;0.10;;
15936;SDS011;9163;48.818;8.976;2023-04-01T14:52:55;0.30;;;0.20;;
15936;SDS011;9163;48.818;8.976;2023-04-01T14:55:29;0.33;;;0.20;;
15936;SDS011;9163;48.818;8.976;2023-04-01T14:58:04;0.10;;;0.10;;
15936;SDS011;9163;48.818;8.976;2023-04-01T15:00:50;0.90;;;0.20;;
15936;SDS011;9163;48.818;8.976;2023-04-01T15:03:26;0.80;;;0.20;;
15936;SDS011;9163;48.818;8.976;2023-04-01T15:05:59;0.27;;;0.10;;
15936;SDS011;9163;48.818;8.976;2023-04-01T15:08:53;0.23;;;0.20;;
15936;SDS011;9163;48.818;8.976;2023-04-01T15:11:33;0.30;;;0.30;;
15936;SDS011;9163;48.818;8.976;2023-04-01T15:14:19;0.20;;;0.20;;
15936;SDS011;9163;48.818;8.976;2023-04-01T15:17:05;0.67;;;0.20;;
15936;SDS011;9163;48.818;8.976;2023-04-01T15:19:58;0.20;;;0.17;;
15936;SDS011;9163;48.818;8.976;2023-04-01T15:22:41;0.50;;;0.30;;
15936;SDS011;9163;48.818;8.976;2023-04-01T15:25:21;0.50;;;0.20;;
15936;SDS011;9163;48.818;8.976;2023-04-01T15:28:08;0.10;;;0.10;;
15936;SDS011;9163;48.818;8.976;2023-04-01T15:30:52;0.20;;;0.10;;
15936;SDS011;9163;48.818;8.976;2023-04-01T15:33:30;0.20;;;0.20;;
15936;SDS011;9163;48.818;8.976;2023-04-01T15:36:17;0.60;;;0.27;;
15936;SDS011;9163;48.818;8.976;2023-04-01T15:38:56;1.27;;;0.30;;
15936;SDS011;9163;48.818;8.976;2023-04-01T15:41:35;0.17;;;0.10;;
15936;SDS011;9163;48.818;8.976;2023-04-01T15:47:00;0.20;;;0.20;;
15936;SDS011;9163;48.818;8.976;2023-04-01T15:49:34;0.30;;;0.30;;
15936;SDS011;9163;48.818;8.976;2023-04-01T15:52:06;0.23;;;0.20;;
15936;SDS011;9163;48.818;8.976;2023-04-01T15:57:40;0.57;;;0.30;;
15936;SDS011;9163;48.818;8.976;2023-04-01T16:00:25;1.80;;;0.20;;
15936;SDS011;9163;48.818;8.976;2023-04-01T16:03:02;0.60;;;0.30;;
15936;SDS011;9163;48.818;8.976;2023-04-01T16:05:47;0.30;;;0.27;;
15936;SDS011;9163;48.818;8.976;2023-04-01T16:11:20;0.80;;;0.53;;
15936;SDS011;9163;48.818;8.976;2023-04-01T16:13:54;1.10;;;0.50;;
15936;SDS011;9163;48.818;8.976;2023-04-01T16:19:37;0.93;;;0.10;;
15936;SDS011;9163;48.818;8.976;2023-04-01T16:22:13;0.50;;;0.37;;
15936;SDS011;9163;48.818;8.976;2023-04-01T16:24:46;0.97;;;0.40;;
15936;SDS011;9163;48.818;8.976;2023-04-01T16:27:18;0.50;;;0.33;;
15936;SDS011;9163;48.818;8.976;2023-04-01T16:29:55;0.60;;;0.30;;
15936;SDS011;9163;48.818;8.976;2023-04-01T16:32:34;0.60;;;0.40;;
15936;SDS011;9163;48.818;8.976;2023-04-01T16:38:05;1.03;;;0.40;;
15936;SDS011;9163;48.818;8.976;2023-04-01T16:40:43;0.90;;;0.37;;
15936;SDS011;9163;48.818;8.976;2023-04-01T16:43:19;0.80;;;0.30;;
15936;SDS011;9163;48.818;8.976;2023-04-01T16:45:54;1.90;;;0.60;;
15936;SDS011;9163;48.818;8.976;2023-04-01T16:48:49;0.30;;;0.30;;
15936;SDS011;9163;48.818;8.976;2023-04-01T16:51:25;0.40;;;0.40;;
15936;SDS011;9163;48.818;8.976;2023-04-01T16:54:02;0.73;;;0.43;;
15936;SDS011;9163;48.818;8.976;2023-04-01T16:56:36;1.23;;;0.50;;
15936;SDS011;9163;48.818;8.976;2023-04-01T16:59:12;1.77;;;0.67;;
15936;SDS011;9163;48.818;8.976;2023-04-01T17:01:47;3.97;;;0.90;;
15936;SDS011;9163;48.818;8.976;2023-04-01T17:04:21;1.63;;;0.93;;
15936;SDS011;9163;48.818;8.976;2023-04-01T17:06:57;1.73;;;0.70;;
15936;SDS011;9163;48.818;8.976;2023-04-01T17:09:36;2.17;;;1.10;;
15936;SDS011;9163;48.818;8.976;2023-04-01T17:12:13;2.07;;;0.60;;
15936;SDS011;9163;48.818;8.976;2023-04-01T17:14:50;1.67;;;0.50;;
15936;SDS011;9163;48.818;8.976;2023-04-01T17:17:36;1.83;;;0.50;;
15936;SDS011;9163;48.818;8.976;2023-04-01T17:23:10;2.30;;;0.60;;
15936;SDS011;9163;48.818;8.976;2023-04-01T17:25:47;1.10;;;0.60;;
15936;SDS011;9163;48.818;8.976;2023-04-01T17:28:29;1.80;;;0.60;;
15936;SDS011;9163;48.818;8.976;2023-04-01T17:31:05;1.10;;;0.53;;
15936;SDS011;9163;48.818;8.976;2023-04-01T17:33:45;1.53;;;0.60;;
15936;SDS011;9163;48.818;8.976;2023-04-01T17:36:30;1.87;;;1.77;;
15936;SDS011;9163;48.818;8.976;2023-04-01T17:39:18;3.03;;;2.40;;
15936;SDS011;9163;48.818;8.976;2023-04-01T17:42:01;3.00;;;1.30;;
15936;SDS011;9163;48.818;8.976;2023-04-01T17:44:40;1.50;;;1.10;;
15936;SDS011;9163;48.818;8.976;2023-04-01T17:47:22;2.20;;;1.07;;
15936;SDS011;9163;48.818;8.976;2023-04-01T17:50:04;1.70;;;1.00;;